createdAt,value
2023-01-05T00:00:49.429Z,48.95
2023-01-05T00:01:49.442Z,49.01
2023-01-05T00:02:49.443Z,48.99
2023-01-05T00:03:49.443Z,48.96
2023-01-05T00:04:49.430Z,48.88
2023-01-05T00:05:49.443Z,48.71
2023-01-05T00:06:49.443Z,48.86
2023-01-05T00:07:49.454Z,48.87
2023-01-05T00:08:49.431Z,48.73
2023-01-05T00:09:49.443Z,48.82
2023-01-05T00:10:49.445Z,48.67
2023-01-05T00:11:49.431Z,48.6
2023-01-05T00:12:49.432Z,48.58
2023-01-05T00:13:49.444Z,48.57
2023-01-05T00:14:49.445Z,48.49
2023-01-05T00:15:49.432Z,48.52
2023-01-05T00:16:49.446Z,48.41
2023-01-05T00:17:49.445Z,48.27
2023-01-05T00:18:49.446Z,48.42
2023-01-05T00:19:49.433Z,48.59
2023-01-05T00:20:49.447Z,48.58
2023-01-05T00:21:49.447Z,48.39
2023-01-05T00:22:49.447Z,48.38
2023-01-05T00:23:49.435Z,48.41
2023-01-05T00:24:49.448Z,48.49
2023-01-05T00:25:49.449Z,48.41
2023-01-05T00:26:49.435Z,48.46
2023-01-05T00:27:49.436Z,48.51
2023-01-05T00:28:49.449Z,48.7
2023-01-05T00:29:49.450Z,48.55
2023-01-05T00:30:49.436Z,48.71
2023-01-05T00:31:49.437Z,48.79
2023-01-05T00:32:49.449Z,49.15
2023-01-05T00:33:49.449Z,48.85
2023-01-05T00:34:49.437Z,48.94
2023-01-05T00:35:49.450Z,48.97
2023-01-05T00:36:49.450Z,49.16
2023-01-05T00:37:49.451Z,49.01
2023-01-05T00:38:49.438Z,49.06
2023-01-05T00:39:49.451Z,49.06
2023-01-05T00:40:49.452Z,49.12
2023-01-05T00:41:49.452Z,48.95
2023-01-05T00:42:49.439Z,49.01
2023-01-05T00:43:49.452Z,49.03
2023-01-05T00:44:49.453Z,48.89
2023-01-05T00:45:49.439Z,48.9
2023-01-05T00:46:49.440Z,48.82
2023-01-05T00:47:49.453Z,48.81
2023-01-05T00:48:49.454Z,48.58
2023-01-05T00:49:49.440Z,48.69
2023-01-05T00:50:49.454Z,48.72
2023-01-05T00:51:49.453Z,48.48
2023-01-05T00:52:49.454Z,48.64
2023-01-05T00:53:49.441Z,48.56
2023-01-05T00:54:49.455Z,48.68
2023-01-05T00:55:49.521Z,48.56
2023-01-05T00:56:49.454Z,48.53
2023-01-05T00:57:49.442Z,48.61
2023-01-05T00:58:49.456Z,48.72
2023-01-05T00:59:49.456Z,48.98
2023-01-05T01:00:49.456Z,49.2
2023-01-05T01:01:49.442Z,49.34
2023-01-05T01:02:49.456Z,49.6
2023-01-05T01:03:49.458Z,49.47
2023-01-05T01:04:49.444Z,49.59
2023-01-05T01:05:49.444Z,49.67
2023-01-05T01:06:49.457Z,49.69
2023-01-05T01:07:49.459Z,49.76
2023-01-05T01:08:49.445Z,49.75
2023-01-05T01:09:49.458Z,49.87
2023-01-05T01:10:49.458Z,49.93
2023-01-05T01:12:49.445Z,49.85
2023-01-05T01:13:49.459Z,49.95
2023-01-05T01:14:49.460Z,49.91
2023-01-05T01:15:49.459Z,50.06
2023-01-05T01:16:49.447Z,49.96
2023-01-05T01:17:49.460Z,49.8
2023-01-05T01:18:49.461Z,49.94
2023-01-05T01:19:49.447Z,49.89
2023-01-05T01:20:49.448Z,49.87
2023-01-05T01:21:49.460Z,49.86
2023-01-05T01:22:49.462Z,49.92
2023-01-05T01:23:49.448Z,49.87
2023-01-05T01:24:49.526Z,49.88
2023-01-05T01:25:49.462Z,50.02
2023-01-05T01:26:49.486Z,49.85
2023-01-05T01:27:49.449Z,49.86
2023-01-05T01:28:49.462Z,49.86
2023-01-05T01:29:49.463Z,49.66
2023-01-05T01:30:49.462Z,49.77
2023-01-05T01:31:58.707Z,49.71
2023-01-05T01:32:49.463Z,49.7
2023-01-05T01:33:49.467Z,49.62
2023-01-05T01:34:49.464Z,49.71
2023-01-05T01:36:49.464Z,49.76
2023-01-05T01:37:49.464Z,49.77
2023-01-05T01:38:49.465Z,49.52
2023-01-05T01:39:49.452Z,49.47
2023-01-05T01:40:49.465Z,49.46
2023-01-05T01:41:49.466Z,49.42
2023-01-05T01:42:49.452Z,49.36
2023-01-05T01:43:49.453Z,49.26
2023-01-05T01:44:49.466Z,49.36
2023-01-05T01:45:49.507Z,49.17
2023-01-05T01:46:49.453Z,49.23
2023-01-05T01:47:49.467Z,49.22
2023-01-05T01:48:49.467Z,49.07
2023-01-05T01:49:49.466Z,49.12
2023-01-05T01:50:49.452Z,49.12
2023-01-05T01:51:49.468Z,49
2023-01-05T01:52:49.469Z,49.08
2023-01-05T01:53:49.468Z,48.9
2023-01-05T01:54:49.456Z,49.02
2023-01-05T01:55:49.469Z,49.04
2023-01-05T01:56:49.470Z,49.08
2023-01-05T01:57:49.454Z,48.92
2023-01-05T01:58:49.457Z,48.86
2023-01-05T01:59:49.470Z,48.69
2023-01-05T02:00:49.471Z,48.97
2023-01-05T02:01:49.457Z,48.83
2023-01-05T02:02:49.458Z,48.83
2023-01-05T02:03:49.469Z,48.77
2023-01-05T02:04:49.470Z,48.96
2023-01-05T02:05:49.458Z,48.84
2023-01-05T02:06:49.471Z,48.8
2023-01-05T02:07:49.470Z,49.08
2023-01-05T02:08:49.471Z,48.88
2023-01-05T02:09:49.458Z,48.81
2023-01-05T02:10:49.472Z,48.72
2023-01-05T02:11:49.473Z,48.68
2023-01-05T02:12:49.473Z,48.7
2023-01-05T02:13:49.460Z,48.69
2023-01-05T02:14:49.472Z,48.64
2023-01-05T02:15:49.473Z,48.56
2023-01-05T02:16:49.460Z,48.78
2023-01-05T02:17:49.461Z,48.82
2023-01-05T02:18:49.474Z,48.91
2023-01-05T02:19:49.474Z,48.86
2023-01-05T02:20:49.461Z,48.86
2023-01-05T02:21:49.475Z,48.81
2023-01-05T02:22:49.474Z,48.89
2023-01-05T02:23:49.474Z,48.79
2023-01-05T02:24:49.462Z,48.78
2023-01-05T02:25:49.476Z,48.64
2023-01-05T02:26:49.475Z,48.86
2023-01-05T02:27:49.475Z,48.74
2023-01-05T02:28:49.464Z,48.64
2023-01-05T02:29:49.476Z,48.74
2023-01-05T02:30:49.478Z,48.65
2023-01-05T02:31:49.477Z,48.75
2023-01-05T02:32:49.465Z,48.7
2023-01-05T02:33:49.477Z,48.65
2023-01-05T02:34:49.479Z,48.71
2023-01-05T02:35:49.465Z,48.87
2023-01-05T02:36:49.465Z,48.88
2023-01-05T02:37:49.477Z,48.93
2023-01-05T02:38:49.504Z,48.8
2023-01-05T02:39:49.466Z,48.86
2023-01-05T02:40:49.479Z,48.95
2023-01-05T02:41:49.479Z,48.84
2023-01-05T02:42:49.480Z,48.97
2023-01-05T02:43:49.466Z,48.94
2023-01-05T02:44:49.480Z,49.13
2023-01-05T02:45:49.480Z,49.07
2023-01-05T02:46:49.481Z,48.99
2023-01-05T02:47:49.468Z,49.19
2023-01-05T02:48:49.481Z,49.25
2023-01-05T02:49:49.481Z,49.35
2023-01-05T02:50:49.468Z,49.26
2023-01-05T02:51:49.467Z,49.33
2023-01-05T02:52:49.482Z,49.36
2023-01-05T02:53:49.483Z,49.31
2023-01-05T02:54:49.469Z,49.38
2023-01-05T02:55:49.470Z,49.39
2023-01-05T02:56:49.483Z,49.67
2023-01-05T02:57:49.483Z,49.38
2023-01-05T02:58:49.468Z,49.37
2023-01-05T02:59:49.484Z,49.25
2023-01-05T03:00:49.483Z,49.33
2023-01-05T03:01:49.484Z,49.23
2023-01-05T03:02:49.472Z,49.19
2023-01-05T03:03:49.485Z,49.15
2023-01-05T03:04:49.485Z,48.97
2023-01-05T03:05:49.485Z,49.1
2023-01-05T03:06:49.472Z,49.03
2023-01-05T03:07:49.509Z,48.94
2023-01-05T03:08:49.487Z,49.22
2023-01-05T03:09:49.473Z,49.06
2023-01-05T03:10:58.729Z,49.12
2023-01-05T03:11:49.486Z,49.23
2023-01-05T03:12:49.488Z,49.25
2023-01-05T03:13:49.473Z,49.27
2023-01-05T03:14:49.527Z,49.37
2023-01-05T03:15:49.486Z,49.47
2023-01-05T03:16:49.488Z,49.4
2023-01-05T03:17:49.474Z,49.34
2023-01-05T03:18:49.488Z,49.33
2023-01-05T03:19:49.488Z,49.38
2023-01-05T03:20:49.488Z,49.41
2023-01-05T03:21:49.476Z,49.45
2023-01-05T03:22:49.489Z,49.59
2023-01-05T03:23:49.489Z,49.39
2023-01-05T03:24:49.489Z,49.43
2023-01-05T03:25:49.475Z,49.39
2023-01-05T03:26:49.490Z,49.3
2023-01-05T03:27:49.490Z,49.3
2023-01-05T03:28:49.477Z,49.34
2023-01-05T03:29:49.478Z,49.35
2023-01-05T03:30:49.491Z,49.08
2023-01-05T03:31:49.492Z,49.33
2023-01-05T03:32:49.478Z,49.4
2023-01-05T03:33:49.492Z,49.29
2023-01-05T03:34:49.492Z,49.38
2023-01-05T03:35:49.492Z,49.48
2023-01-05T03:36:49.479Z,49.5
2023-01-05T03:37:49.492Z,49.35
2023-01-05T03:38:49.519Z,49.56
2023-01-05T03:39:49.493Z,49.73
2023-01-05T03:40:49.480Z,49.59
2023-01-05T03:41:49.492Z,49.55
2023-01-05T03:42:49.493Z,49.49
2023-01-05T03:43:49.494Z,49.44
2023-01-05T03:44:49.481Z,49.58
2023-01-05T03:45:49.493Z,49.5
2023-01-05T03:46:49.494Z,49.69
2023-01-05T03:47:49.481Z,49.61
2023-01-05T03:48:49.482Z,49.6
2023-01-05T03:49:49.495Z,49.66
2023-01-05T03:50:49.519Z,49.47
2023-01-05T03:51:49.482Z,49.54
2023-01-05T03:52:49.495Z,49.43
2023-01-05T03:53:49.496Z,49.65
2023-01-05T03:54:49.495Z,49.44
2023-01-05T03:55:49.481Z,49.44
2023-01-05T03:56:49.497Z,49.29
2023-01-05T03:57:49.498Z,49.49
2023-01-05T03:58:49.496Z,49.25
2023-01-05T03:59:49.485Z,49.33
2023-01-05T04:00:49.498Z,49.38
2023-01-05T04:01:49.499Z,49.39
2023-01-05T04:02:49.485Z,49.26
2023-01-05T04:03:49.486Z,49.26
2023-01-05T04:04:49.499Z,49.26
2023-01-05T04:05:49.500Z,49.24
2023-01-05T04:06:49.486Z,49.18
2023-01-05T04:07:49.563Z,49.2
2023-01-05T04:08:49.498Z,49.2
2023-01-05T04:09:49.500Z,49.09
2023-01-05T04:10:49.487Z,49.2
2023-01-05T04:11:49.500Z,49.18
2023-01-05T04:12:49.500Z,49.3
2023-01-05T04:13:49.500Z,49.28
2023-01-05T04:14:49.488Z,49.17
2023-01-05T04:15:49.501Z,49.17
2023-01-05T04:16:49.502Z,49.06
2023-01-05T04:17:49.502Z,49.13
2023-01-05T04:18:49.489Z,49.09
2023-01-05T04:20:49.502Z,49.14
2023-01-05T04:21:49.489Z,49.08
2023-01-05T04:22:49.490Z,49.04
2023-01-05T04:23:49.502Z,49.17
2023-01-05T04:24:49.504Z,49.05
2023-01-05T04:25:49.490Z,49.05
2023-01-05T04:26:54.890Z,48.8
2023-01-05T04:27:49.504Z,49.01
2023-01-05T04:28:49.503Z,48.86
2023-01-05T04:29:49.491Z,48.86
2023-01-05T04:30:49.505Z,48.93
2023-01-05T04:31:49.504Z,48.87
2023-01-05T04:32:49.505Z,48.79
2023-01-05T04:33:49.493Z,48.83
2023-01-05T04:34:49.505Z,48.91
2023-01-05T04:35:49.506Z,48.97
2023-01-05T04:36:49.505Z,48.92
2023-01-05T04:37:49.492Z,48.9
2023-01-05T04:38:49.546Z,49.02
2023-01-05T04:39:49.507Z,48.97
2023-01-05T04:40:49.493Z,48.9
2023-01-05T04:41:49.493Z,48.91
2023-01-05T04:42:49.506Z,48.92
2023-01-05T04:43:49.509Z,48.8
2023-01-05T04:44:49.494Z,48.8
2023-01-05T04:45:49.508Z,48.85
2023-01-05T04:46:49.508Z,48.8
2023-01-05T04:47:49.507Z,48.65
2023-01-05T04:48:58.753Z,48.76
2023-01-05T04:49:49.509Z,48.77
2023-01-05T04:50:49.528Z,48.82
2023-01-05T04:51:49.508Z,48.95
2023-01-05T04:52:49.497Z,48.81
2023-01-05T04:53:49.509Z,48.77
2023-01-05T04:54:49.511Z,48.77
2023-01-05T04:55:49.510Z,48.74
2023-01-05T04:56:49.497Z,48.84
2023-01-05T04:57:49.511Z,48.86
2023-01-05T04:58:49.511Z,48.81
2023-01-05T04:59:49.498Z,48.81
2023-01-05T05:00:49.499Z,48.78
2023-01-05T05:01:49.512Z,48.69
2023-01-05T05:02:49.537Z,48.88
2023-01-05T05:03:49.497Z,48.74
2023-01-05T05:04:49.513Z,48.69
2023-01-05T05:05:49.513Z,48.94
2023-01-05T05:06:49.513Z,48.78
2023-01-05T05:07:49.500Z,48.83
2023-01-05T05:08:49.513Z,48.88
2023-01-05T05:09:49.514Z,48.85
2023-01-05T05:10:49.513Z,48.83
2023-01-05T05:11:49.501Z,48.8
2023-01-05T05:12:49.514Z,48.84
2023-01-05T05:13:49.516Z,48.99
2023-01-05T05:14:49.501Z,48.81
2023-01-05T05:15:49.502Z,48.82
2023-01-05T05:16:49.515Z,48.94
2023-01-05T05:17:49.516Z,49.09
2023-01-05T05:18:49.502Z,48.99
2023-01-05T05:19:49.503Z,49.01
2023-01-05T05:20:49.515Z,48.91
2023-01-05T05:21:49.516Z,48.92
2023-01-05T05:22:49.503Z,48.98
2023-01-05T05:23:49.517Z,49.08
2023-01-05T05:24:49.516Z,49.13
2023-01-05T05:25:49.517Z,49.09
2023-01-05T05:27:49.518Z,49.23
2023-01-05T05:28:49.519Z,49.32
2023-01-05T05:29:49.517Z,49.41
2023-01-05T05:30:49.504Z,49.35
2023-01-05T05:31:49.519Z,49.19
2023-01-05T05:32:49.520Z,49.3
2023-01-05T05:33:49.506Z,49.37
2023-01-05T05:34:49.507Z,49.34
2023-01-05T05:35:49.519Z,49.33
2023-01-05T05:36:49.520Z,49.42
2023-01-05T05:37:49.507Z,49.48
2023-01-05T05:38:49.520Z,49.49
2023-01-05T05:39:49.521Z,49.41
2023-01-05T05:40:49.520Z,49.49
2023-01-05T05:41:49.508Z,49.52
2023-01-05T05:42:49.521Z,49.5
2023-01-05T05:43:49.522Z,49.71
2023-01-05T05:44:49.522Z,49.51
2023-01-05T05:45:49.509Z,49.57
2023-01-05T05:46:49.522Z,49.49
2023-01-05T05:47:49.524Z,49.6
2023-01-05T05:48:49.508Z,49.59
2023-01-05T05:49:49.510Z,49.52
2023-01-05T05:50:49.523Z,49.42
2023-01-05T05:51:49.524Z,49.51
2023-01-05T05:52:49.510Z,49.38
2023-01-05T05:53:49.511Z,49.39
2023-01-05T05:54:49.524Z,49.24
2023-01-05T05:55:49.524Z,49.27
2023-01-05T05:56:49.511Z,49.42
2023-01-05T05:57:49.525Z,49.24
2023-01-05T05:58:49.525Z,49.54
2023-01-05T05:59:49.524Z,49.26
2023-01-05T06:00:49.513Z,49.31
2023-01-05T06:01:49.526Z,49.32
2023-01-05T06:02:49.526Z,49.26
2023-01-05T06:03:49.526Z,49.14
2023-01-05T06:04:49.513Z,49.21
2023-01-05T06:05:49.590Z,49.3
2023-01-05T06:06:49.527Z,49.3
2023-01-05T06:07:49.514Z,49.25
2023-01-05T06:08:49.515Z,49.22
2023-01-05T06:09:49.528Z,49.3
2023-01-05T06:10:49.528Z,49.26
2023-01-05T06:11:49.515Z,49.16
2023-01-05T06:12:49.528Z,49.27
2023-01-05T06:13:49.528Z,49.48
2023-01-05T06:14:49.529Z,49.27
2023-01-05T06:15:49.516Z,49.27
2023-01-05T06:16:49.529Z,49.19
2023-01-05T06:17:49.574Z,49.26
2023-01-05T06:18:49.530Z,49.26
2023-01-05T06:19:49.517Z,49.2
2023-01-05T06:20:49.530Z,49.14
2023-01-05T06:21:49.531Z,49.14
2023-01-05T06:22:49.530Z,48.96
2023-01-05T06:23:49.517Z,49.08
2023-01-05T06:24:49.531Z,49.23
2023-01-05T06:25:49.532Z,49.13
2023-01-05T06:26:57.751Z,49.16
2023-01-05T06:27:49.519Z,49.17
2023-01-05T06:28:49.532Z,49.3
2023-01-05T06:29:49.532Z,49.3
2023-01-05T06:30:49.519Z,49.2
2023-01-05T06:31:49.535Z,49.27
2023-01-05T06:32:49.533Z,49.03
2023-01-05T06:33:49.532Z,49.36
2023-01-05T06:34:49.520Z,49.33
2023-01-05T06:35:49.534Z,49.39
2023-01-05T06:36:49.599Z,49.39
2023-01-05T06:37:49.533Z,49.51
2023-01-05T06:38:49.522Z,49.48
2023-01-05T06:39:49.535Z,49.46
2023-01-05T06:40:49.536Z,49.56
2023-01-05T06:41:49.535Z,49.72
2023-01-05T06:42:49.523Z,49.8
2023-01-05T06:43:49.536Z,50.01
2023-01-05T06:44:49.536Z,49.91
2023-01-05T06:45:49.523Z,50
2023-01-05T06:46:57.756Z,50.07
2023-01-05T06:47:49.536Z,50.27
2023-01-05T06:48:49.538Z,50.09
2023-01-05T06:49:49.524Z,50.14
2023-01-05T06:50:49.537Z,50.3
2023-01-05T06:51:49.536Z,50.13
2023-01-05T06:52:49.537Z,50.48
2023-01-05T06:53:49.525Z,50.42
2023-01-05T06:54:49.538Z,50.48
2023-01-05T06:55:49.603Z,50.45
2023-01-05T06:56:49.539Z,50.5
2023-01-05T06:57:49.526Z,50.46
2023-01-05T06:58:49.539Z,50.43
2023-01-05T06:59:49.539Z,50.49
2023-01-05T07:00:49.540Z,50.37
2023-01-05T07:01:49.527Z,50.47
2023-01-05T07:02:49.540Z,50.54
2023-01-05T07:03:49.540Z,50.5
2023-01-05T07:04:49.525Z,50.55
2023-01-05T07:05:49.528Z,50.54
2023-01-05T07:06:49.541Z,50.6
2023-01-05T07:07:49.566Z,50.45
2023-01-05T07:08:49.526Z,50.5
2023-01-05T07:09:49.542Z,50.54
2023-01-05T07:10:49.542Z,50.36
2023-01-05T07:11:49.541Z,50.4
2023-01-05T07:12:49.529Z,50.46
2023-01-05T07:13:49.543Z,50.41
2023-01-05T07:14:49.544Z,50.54
2023-01-05T07:15:49.543Z,50.56
2023-01-05T07:16:49.530Z,50.51
2023-01-05T07:17:49.543Z,50.45
2023-01-05T07:18:49.545Z,50.5
2023-01-05T07:19:49.530Z,50.48
2023-01-05T07:20:49.531Z,50.5
2023-01-05T07:21:49.544Z,50.34
2023-01-05T07:22:49.545Z,50.56
2023-01-05T07:23:49.531Z,50.58
2023-01-05T07:24:49.532Z,50.58
2023-01-05T07:25:49.545Z,50.64
2023-01-05T07:26:49.544Z,50.66
2023-01-05T07:27:49.532Z,50.59
2023-01-05T07:28:49.546Z,50.53
2023-01-05T07:29:49.545Z,50.59
2023-01-05T07:30:49.545Z,50.56
2023-01-05T07:31:49.532Z,50.62
2023-01-05T07:32:49.546Z,50.7
2023-01-05T07:33:49.548Z,50.54
2023-01-05T07:34:49.546Z,50.58
2023-01-05T07:35:49.535Z,50.64
2023-01-05T07:36:49.589Z,50.53
2023-01-05T07:37:49.548Z,50.64
2023-01-05T07:38:49.535Z,50.53
2023-01-05T07:39:49.536Z,50.5
2023-01-05T07:40:49.549Z,50.32
2023-01-05T07:41:49.549Z,50.54
2023-01-05T07:42:49.536Z,50.33
2023-01-05T07:43:49.548Z,50.39
2023-01-05T07:44:49.549Z,50.28
2023-01-05T07:45:49.549Z,50.17
2023-01-05T07:46:49.537Z,50.21
2023-01-05T07:47:49.550Z,50.16
2023-01-05T07:48:49.617Z,50.15
2023-01-05T07:49:49.551Z,50.26
2023-01-05T07:50:49.538Z,50.1
2023-01-05T07:51:49.551Z,50.15
2023-01-05T07:52:49.552Z,50
2023-01-05T07:53:49.551Z,49.92
2023-01-05T07:54:49.539Z,49.86
2023-01-05T07:55:49.551Z,49.96
2023-01-05T07:56:49.552Z,49.72
2023-01-05T07:57:49.539Z,49.69
2023-01-05T07:58:49.540Z,49.63
2023-01-05T07:59:49.553Z,49.67
2023-01-05T08:00:49.553Z,49.54
2023-01-05T08:01:49.540Z,49.51
2023-01-05T08:02:49.541Z,49.45
2023-01-05T08:03:49.554Z,49.26
2023-01-05T08:04:49.554Z,49.24
2023-01-05T08:05:58.798Z,49.14
2023-01-05T08:06:49.555Z,49.08
2023-01-05T08:07:49.554Z,49.03
2023-01-05T08:08:49.555Z,49.17
2023-01-05T08:09:49.542Z,49.05
2023-01-05T08:10:49.555Z,49.01
2023-01-05T08:11:49.557Z,49.32
2023-01-05T08:12:49.556Z,49.1
2023-01-05T08:13:49.543Z,49
2023-01-05T08:14:49.556Z,48.92
2023-01-05T08:15:49.557Z,48.83
2023-01-05T08:16:49.544Z,48.85
2023-01-05T08:17:49.543Z,48.8
2023-01-05T08:18:49.557Z,48.73
2023-01-05T08:19:49.559Z,48.85
2023-01-05T08:20:49.544Z,48.81
2023-01-05T08:21:49.608Z,48.74
2023-01-05T08:22:49.557Z,48.78
2023-01-05T08:23:49.559Z,48.8
2023-01-05T08:24:49.545Z,48.78
2023-01-05T08:25:49.559Z,48.74
2023-01-05T08:26:49.558Z,48.82
2023-01-05T08:27:49.558Z,48.75
2023-01-05T08:29:49.560Z,48.63
2023-01-05T08:30:49.561Z,48.7
2023-01-05T08:31:49.560Z,48.53
2023-01-05T08:32:49.548Z,48.58
2023-01-05T08:33:49.560Z,48.72
2023-01-05T08:34:49.562Z,48.57
2023-01-05T08:35:49.548Z,48.56
2023-01-05T08:36:49.549Z,48.59
2023-01-05T08:37:49.561Z,48.59
2023-01-05T08:38:49.625Z,48.51
2023-01-05T08:39:49.549Z,48.56
2023-01-05T08:40:49.562Z,48.55
2023-01-05T08:41:49.563Z,48.65
2023-01-05T08:42:49.563Z,48.41
2023-01-05T08:43:49.550Z,48.43
2023-01-05T08:44:49.563Z,48.49
2023-01-05T08:45:49.564Z,48.37
2023-01-05T08:46:49.564Z,48.48
2023-01-05T08:47:49.551Z,48.35
2023-01-05T08:48:49.563Z,48.37
2023-01-05T08:49:49.566Z,48.44
2023-01-05T08:50:49.551Z,48.3
2023-01-05T08:51:49.552Z,48.35
2023-01-05T08:52:49.565Z,48.56
2023-01-05T08:53:49.566Z,48.36
2023-01-05T08:54:49.552Z,48.44
2023-01-05T08:55:49.553Z,48.41
2023-01-05T08:56:49.565Z,48.32
2023-01-05T08:57:49.591Z,48.57
2023-01-05T08:58:49.552Z,48.46
2023-01-05T08:59:49.567Z,48.55
2023-01-05T09:00:49.567Z,48.51
2023-01-05T09:01:49.567Z,48.56
2023-01-05T09:02:49.554Z,48.58
2023-01-05T09:03:49.568Z,48.6
2023-01-05T09:04:49.569Z,48.53
2023-01-05T09:05:49.568Z,48.53
2023-01-05T09:06:49.556Z,48.5
2023-01-05T09:07:49.569Z,48.54
2023-01-05T09:08:49.569Z,48.65
2023-01-05T09:09:49.556Z,48.41
2023-01-05T09:10:49.557Z,48.28
2023-01-05T09:11:49.570Z,48.29
2023-01-05T09:12:49.571Z,48.15
2023-01-05T09:13:49.557Z,48.13
2023-01-05T09:14:49.558Z,48.09
2023-01-05T09:15:49.571Z,48.06
2023-01-05T09:16:49.571Z,48.12
2023-01-05T09:17:49.558Z,48.03
2023-01-05T09:18:49.571Z,48.06
2023-01-05T09:19:49.572Z,48.09
2023-01-05T09:20:49.571Z,48.08
2023-01-05T09:21:49.559Z,48.07
2023-01-05T09:22:49.572Z,48
2023-01-05T09:23:49.574Z,48.02
2023-01-05T09:24:49.572Z,48.06
2023-01-05T09:25:49.560Z,48.1
2023-01-05T09:26:49.573Z,48.18
2023-01-05T09:27:49.574Z,48.45
2023-01-05T09:28:49.561Z,48.34
2023-01-05T09:29:49.561Z,48.45
2023-01-05T09:30:49.574Z,48.46
2023-01-05T09:31:49.576Z,48.66
2023-01-05T09:32:49.561Z,48.6
2023-01-05T09:33:49.575Z,48.7
2023-01-05T09:34:49.575Z,48.67
2023-01-05T09:35:49.574Z,48.64
2023-01-05T09:36:49.562Z,48.6
2023-01-05T09:37:49.576Z,48.67
2023-01-05T09:38:49.620Z,48.49
2023-01-05T09:39:49.576Z,48.46
2023-01-05T09:40:49.564Z,48.54
2023-01-05T09:41:49.577Z,48.62
2023-01-05T09:42:49.578Z,48.71
2023-01-05T09:43:49.577Z,48.67
2023-01-05T09:44:58.822Z,48.53
2023-01-05T09:45:49.578Z,48.51
2023-01-05T09:46:49.579Z,48.41
2023-01-05T09:47:49.565Z,48.54
2023-01-05T09:48:49.566Z,48.57
2023-01-05T09:49:49.578Z,48.54
2023-01-05T09:50:49.579Z,48.56
2023-01-05T09:51:49.566Z,48.57
2023-01-05T09:52:49.580Z,48.7
2023-01-05T09:53:49.580Z,48.81
2023-01-05T09:54:49.580Z,48.69
2023-01-05T09:55:49.567Z,48.6
2023-01-05T09:56:49.580Z,48.53
2023-01-05T09:57:49.581Z,48.55
2023-01-05T09:58:49.581Z,48.5
2023-01-05T09:59:49.567Z,48.37
2023-01-05T10:00:49.582Z,48.31
2023-01-05T10:01:49.582Z,48.6
2023-01-05T10:02:49.582Z,48.41
2023-01-05T10:03:49.569Z,48.51
2023-01-05T10:04:49.582Z,48.75
2023-01-05T10:05:49.583Z,48.81
2023-01-05T10:06:49.570Z,48.73
2023-01-05T10:07:49.569Z,48.71
2023-01-05T10:08:49.583Z,48.59
2023-01-05T10:09:49.584Z,48.76
2023-01-05T10:10:49.571Z,48.73
2023-01-05T10:11:49.584Z,48.66
2023-01-05T10:12:49.583Z,48.67
2023-01-05T10:13:49.585Z,48.51
2023-01-05T10:14:49.571Z,48.46
2023-01-05T10:15:49.584Z,48.54
2023-01-05T10:16:49.586Z,48.44
2023-01-05T10:17:49.585Z,48.24
2023-01-05T10:18:49.573Z,48.17
2023-01-05T10:19:49.586Z,47.91
2023-01-05T10:20:49.587Z,48.03
2023-01-05T10:21:49.573Z,48.01
2023-01-05T10:22:49.574Z,47.99
2023-01-05T10:23:49.587Z,48.04
2023-01-05T10:24:49.587Z,48.02
2023-01-05T10:25:49.574Z,48.1
2023-01-05T10:26:49.575Z,48.17
2023-01-05T10:27:49.588Z,48.12
2023-01-05T10:28:49.587Z,48.19
2023-01-05T10:29:49.575Z,48.08
2023-01-05T10:30:49.589Z,48.12
2023-01-05T10:31:49.588Z,48.05
2023-01-05T10:32:49.588Z,47.83
2023-01-05T10:33:49.577Z,47.87
2023-01-05T10:34:49.589Z,47.9
2023-01-05T10:35:49.591Z,48.19
2023-01-05T10:36:49.589Z,48.09
2023-01-05T10:37:49.578Z,48.15
2023-01-05T10:38:49.655Z,48.11
2023-01-05T10:39:49.591Z,48.21
2023-01-05T10:40:49.578Z,48
2023-01-05T10:41:49.579Z,47.96
2023-01-05T10:42:49.592Z,47.77
2023-01-05T10:43:49.593Z,47.8
2023-01-05T10:44:49.579Z,47.71
2023-01-05T10:45:49.592Z,47.68
2023-01-05T10:46:49.593Z,47.58
2023-01-05T10:47:49.592Z,47.66
2023-01-05T10:48:49.580Z,47.81
2023-01-05T10:49:49.593Z,47.68
2023-01-05T10:51:49.593Z,48.06
2023-01-05T10:52:49.581Z,48.11
2023-01-05T10:53:49.594Z,48.11
2023-01-05T10:54:49.595Z,48.29
2023-01-05T10:55:49.594Z,48.35
2023-01-05T10:56:49.582Z,48.34
2023-01-05T10:57:49.621Z,48.43
2023-01-05T10:58:49.597Z,48.43
2023-01-05T10:59:49.582Z,48.58
2023-01-05T11:00:49.583Z,48.68
2023-01-05T11:01:49.595Z,48.71
2023-01-05T11:02:49.596Z,48.82
2023-01-05T11:03:49.583Z,48.85
2023-01-05T11:04:49.597Z,48.92
2023-01-05T11:05:49.597Z,48.87
2023-01-05T11:06:49.597Z,48.84
2023-01-05T11:07:49.583Z,48.87
2023-01-05T11:08:49.598Z,48.96
2023-01-05T11:09:49.625Z,49
2023-01-05T11:10:49.599Z,49
2023-01-05T11:11:49.586Z,48.91
2023-01-05T11:12:49.599Z,48.82
2023-01-05T11:13:49.599Z,48.67
2023-01-05T11:14:49.599Z,48.74
2023-01-05T11:15:49.587Z,48.72
2023-01-05T11:16:49.599Z,48.91
2023-01-05T11:17:49.601Z,48.96
2023-01-05T11:18:49.587Z,48.91
2023-01-05T11:19:49.588Z,48.92
2023-01-05T11:20:49.600Z,48.97
2023-01-05T11:21:49.625Z,48.74
2023-01-05T11:22:58.845Z,48.69
2023-01-05T11:23:49.602Z,48.7
2023-01-05T11:24:49.601Z,48.78
2023-01-05T11:25:49.602Z,48.74
2023-01-05T11:26:49.589Z,48.79
2023-01-05T11:27:49.603Z,48.72
2023-01-05T11:28:49.606Z,48.8
2023-01-05T11:29:49.603Z,48.83
2023-01-05T11:30:49.591Z,48.94
2023-01-05T11:31:49.604Z,48.98
2023-01-05T11:32:49.604Z,49.07
2023-01-05T11:33:49.604Z,49
2023-01-05T11:34:49.592Z,48.89
2023-01-05T11:35:49.604Z,48.98
2023-01-05T11:36:49.606Z,48.93
2023-01-05T11:37:49.592Z,48.89
2023-01-05T11:38:49.593Z,48.84
2023-01-05T11:39:49.605Z,48.88
2023-01-05T11:40:49.607Z,48.64
2023-01-05T11:41:49.593Z,48.64
2023-01-05T11:42:49.606Z,48.54
2023-01-05T11:43:49.607Z,48.59
2023-01-05T11:44:49.606Z,48.52
2023-01-05T11:45:49.594Z,48.42
2023-01-05T11:46:49.607Z,48.28
2023-01-05T11:47:49.609Z,48.33
2023-01-05T11:48:49.607Z,48.23
2023-01-05T11:49:49.595Z,48.28
2023-01-05T11:50:49.608Z,48.03
2023-01-05T11:51:49.609Z,48.53
2023-01-05T11:52:49.594Z,48.3
2023-01-05T11:53:49.596Z,48.24
2023-01-05T11:54:49.608Z,48.32
2023-01-05T11:55:49.610Z,48.26
2023-01-05T11:56:49.596Z,48.5
2023-01-05T11:57:49.597Z,48.62
2023-01-05T11:58:49.610Z,48.79
2023-01-05T11:59:49.611Z,49.02
2023-01-05T12:00:49.598Z,48.98
2023-01-05T12:01:49.611Z,49.06
2023-01-05T12:02:49.611Z,49.07
2023-01-05T12:03:49.612Z,49.07
2023-01-05T12:04:49.611Z,48.99
2023-01-05T12:05:49.612Z,49.05
2023-01-05T12:06:49.613Z,48.83
2023-01-05T12:07:49.613Z,48.74
2023-01-05T12:08:49.600Z,48.7
2023-01-05T12:09:49.613Z,48.64
2023-01-05T12:10:49.613Z,48.83
2023-01-05T12:11:49.600Z,48.84
2023-01-05T12:12:49.601Z,48.91
2023-01-05T12:13:49.614Z,48.82
2023-01-05T12:14:49.614Z,48.83
2023-01-05T12:15:49.601Z,48.7
2023-01-05T12:16:49.655Z,48.51
2023-01-05T12:17:49.614Z,48.62
2023-01-05T12:18:49.614Z,48.86
2023-01-05T12:19:49.600Z,48.79
2023-01-05T12:20:49.616Z,48.83
2023-01-05T12:21:49.616Z,48.79
2023-01-05T12:22:49.616Z,48.77
2023-01-05T12:23:49.604Z,48.73
2023-01-05T12:24:49.617Z,48.71
2023-01-05T12:25:49.618Z,48.59
2023-01-05T12:26:49.617Z,48.59
2023-01-05T12:27:49.605Z,48.54
2023-01-05T12:28:49.618Z,48.62
2023-01-05T12:29:49.619Z,48.76
2023-01-05T12:30:49.603Z,48.82
2023-01-05T12:31:49.605Z,48.87
2023-01-05T12:32:49.619Z,48.79
2023-01-05T12:33:49.620Z,48.96
2023-01-05T12:34:49.606Z,48.92
2023-01-05T12:35:49.620Z,49.04
2023-01-05T12:36:49.619Z,48.98
2023-01-05T12:37:49.620Z,49.17
2023-01-05T12:38:49.607Z,49.08
2023-01-05T12:39:49.621Z,49.1
2023-01-05T12:40:49.622Z,49.26
2023-01-05T12:41:49.621Z,49.08
2023-01-05T12:42:49.608Z,49.03
2023-01-05T12:43:49.620Z,48.95
2023-01-05T12:44:49.622Z,49.34
2023-01-05T12:45:49.607Z,49.31
2023-01-05T12:46:49.609Z,49.49
2023-01-05T12:47:49.622Z,49.75
2023-01-05T12:48:49.624Z,49.81
2023-01-05T12:49:49.610Z,49.94
2023-01-05T12:50:49.673Z,50.01
2023-01-05T12:51:49.623Z,49.99
2023-01-05T12:52:49.623Z,49.79
2023-01-05T12:54:49.623Z,49.74
2023-01-05T12:56:49.625Z,49.59
2023-01-05T12:57:54.889Z,49.51
2023-01-05T12:58:49.624Z,49.2
2023-01-05T12:59:49.625Z,49.22
2023-01-05T13:00:58.884Z,48.95
2023-01-05T13:01:49.613Z,48.78
2023-01-05T13:02:49.626Z,48.64
2023-01-05T13:03:49.626Z,48.48
2023-01-05T13:04:49.626Z,48.39